createdAt,value
2018-11-29T00:00:37.734Z,17.23
2018-11-29T00:03:07.959Z,16.33
2018-11-29T00:05:36.981Z,17.37
2018-11-29T00:08:06.084Z,17.17
2018-11-29T00:10:35.349Z,17.70
2018-11-29T00:13:05.142Z,16.63
2018-11-29T00:15:35.205Z,16.83
2018-11-29T00:18:04.244Z,16.37
2018-11-29T00:20:33.598Z,16.63
2018-11-29T00:23:02.566Z,18.63
2018-11-29T00:25:31.936Z,15.23
2018-11-29T00:28:01.164Z,17.67
2018-11-29T00:30:30.174Z,18.07
2018-11-29T00:32:59.370Z,17.37
2018-11-29T00:35:28.331Z,15.67
2018-11-29T00:37:57.332Z,18.23
2018-11-29T00:40:26.796Z,19.03
2018-11-29T00:42:56.175Z,17.77
2018-11-29T00:45:26.238Z,17.73
2018-11-29T00:47:55.622Z,17.33
2018-11-29T00:50:24.631Z,17.73
2018-11-29T00:52:53.637Z,18.57
2018-11-29T00:55:23.447Z,18.07
2018-11-29T00:57:53.001Z,16.77
2018-11-29T01:00:23.185Z,18.73
2018-11-29T01:02:52.265Z,16.70
2018-11-29T01:05:21.375Z,18.13
2018-11-29T01:07:51.061Z,15.73
2018-11-29T01:10:20.267Z,17.13
2018-11-29T01:12:50.104Z,17.80
2018-11-29T01:15:21.198Z,17.13
2018-11-29T01:17:51.139Z,18.97
2018-11-29T01:20:21.117Z,17.93
2018-11-29T01:22:50.201Z,17.70
2018-11-29T01:25:19.429Z,18.37
2018-11-29T01:27:49.314Z,18.17
2018-11-29T01:30:19.750Z,17.43
2018-11-29T01:32:48.895Z,17.27
2018-11-29T01:35:20.367Z,16.30
2018-11-29T01:37:50.289Z,16.30
2018-11-29T01:40:22.881Z,16.03
2018-11-29T01:42:55.940Z,16.27
2018-11-29T01:45:25.637Z,15.97
2018-11-29T01:47:54.942Z,15.97
2018-11-29T01:50:24.093Z,16.77
2018-11-29T01:52:53.118Z,17.30
2018-11-29T01:55:22.153Z,15.53
2018-11-29T01:57:51.585Z,15.17
2018-11-29T02:00:20.906Z,15.00
2018-11-29T02:02:51.254Z,15.00
2018-11-29T02:05:20.404Z,15.33
2018-11-29T02:07:49.942Z,16.97
2018-11-29T02:10:24.277Z,15.93
2018-11-29T02:12:53.371Z,15.03
2018-11-29T02:15:22.683Z,14.77
2018-11-29T02:17:51.935Z,15.40
2018-11-29T02:20:21.317Z,15.57
2018-11-29T02:22:50.768Z,17.93
2018-11-29T02:25:19.821Z,17.47
2018-11-29T02:27:48.866Z,16.73
2018-11-29T02:30:21.714Z,16.93
2018-11-29T02:32:51.361Z,16.87
2018-11-29T02:35:20.387Z,16.40
2018-11-29T02:37:49.797Z,15.20
2018-11-29T02:40:19.567Z,15.33
2018-11-29T02:42:49.492Z,16.87
2018-11-29T02:45:20.550Z,14.83
2018-11-29T02:47:49.690Z,17.23
2018-11-29T02:50:18.657Z,16.63
2018-11-29T02:52:47.743Z,15.47
2018-11-29T02:55:16.722Z,15.73
2018-11-29T02:57:46.211Z,16.90
2018-11-29T03:00:16.732Z,16.47
2018-11-29T03:02:45.865Z,16.17
2018-11-29T03:05:16.038Z,15.97
2018-11-29T03:07:45.132Z,17.23
2018-11-29T03:10:14.857Z,17.37
2018-11-29T03:12:44.495Z,15.13
2018-11-29T03:15:15.956Z,13.80
2018-11-29T03:17:45.251Z,14.20
2018-11-29T03:20:14.839Z,13.80
2018-11-29T03:22:43.913Z,16.87
2018-11-29T03:25:15.074Z,14.47
2018-11-29T03:27:44.956Z,14.80
2018-11-29T03:30:16.282Z,13.43
2018-11-29T03:32:45.771Z,15.43
2018-11-29T03:35:15.306Z,14.07
2018-11-29T03:37:44.472Z,16.47
2018-11-29T03:40:15.496Z,16.83
2018-11-29T03:42:45.738Z,16.40
2018-11-29T03:45:16.396Z,17.07
2018-11-29T03:47:46.220Z,16.60
2018-11-29T03:50:16.401Z,16.30
2018-11-29T03:52:45.757Z,15.87
2018-11-29T03:55:15.169Z,16.37
2018-11-29T03:57:44.315Z,16.47
2018-11-29T04:00:14.622Z,15.73
2018-11-29T04:02:44.265Z,16.17
2018-11-29T04:05:13.533Z,15.93
2018-11-29T04:07:42.576Z,15.93
2018-11-29T04:10:13.479Z,16.63
2018-11-29T04:12:42.656Z,14.60
2018-11-29T04:15:12.784Z,16.07
2018-11-29T04:17:42.219Z,16.07
2018-11-29T04:20:17.307Z,14.33
2018-11-29T04:22:47.183Z,16.40
2018-11-29T04:25:16.554Z,17.10
2018-11-29T04:27:45.936Z,17.43
2018-11-29T04:30:18.191Z,15.27
2018-11-29T04:32:47.949Z,15.47
2018-11-29T04:35:17.476Z,15.17
2018-11-29T04:37:46.518Z,16.10
2018-11-29T04:40:17.163Z,14.57
2018-11-29T04:42:46.627Z,15.63
2018-11-29T04:45:16.887Z,15.33
2018-11-29T04:47:46.265Z,14.47
2018-11-29T04:50:16.313Z,15.47
2018-11-29T04:52:45.803Z,15.63
2018-11-29T04:55:15.488Z,14.67
2018-11-29T04:57:44.491Z,14.13
2018-11-29T05:00:16.224Z,15.53
2018-11-29T05:02:45.500Z,15.33
2018-11-29T05:05:14.964Z,15.63
2018-11-29T05:07:44.020Z,15.37
2018-11-29T05:10:16.775Z,16.90
2018-11-29T05:12:46.598Z,15.20
2018-11-29T05:15:15.609Z,13.80
2018-11-29T05:17:44.599Z,15.40
2018-11-29T05:20:13.617Z,16.30
2018-11-29T05:22:43.111Z,16.13
2018-11-29T05:25:12.199Z,15.67
2018-11-29T05:27:41.242Z,15.33
2018-11-29T05:30:12.668Z,14.27
2018-11-29T05:32:41.721Z,15.07
2018-11-29T05:35:12.103Z,14.60
2018-11-29T05:37:42.020Z,16.20
2018-11-29T05:40:12.277Z,15.90
2018-11-29T05:42:41.322Z,13.53
2018-11-29T05:45:11.185Z,14.70
2018-11-29T05:47:40.252Z,14.70
2018-11-29T05:50:11.232Z,15.40
2018-11-29T05:52:41.753Z,13.83
2018-11-29T05:55:11.077Z,15.20
2018-11-29T05:57:40.075Z,13.83
2018-11-29T06:00:11.721Z,14.40
2018-11-29T06:02:41.315Z,13.07
2018-11-29T06:05:11.986Z,13.53
2018-11-29T06:07:41.116Z,13.37
2018-11-29T06:10:10.191Z,14.40
2018-11-29T06:12:39.695Z,14.03
2018-11-29T06:15:10.607Z,11.77
2018-11-29T06:17:39.970Z,14.17
2018-11-29T06:20:17.977Z,13.30
2018-11-29T06:22:47.544Z,14.00
2018-11-29T06:25:17.299Z,14.83
2018-11-29T06:27:46.325Z,16.00
2018-11-29T06:30:17.414Z,13.90
2018-11-29T06:32:47.377Z,14.10
2018-11-29T06:35:17.037Z,15.73
2018-11-29T06:37:46.113Z,14.40
2018-11-29T06:40:15.901Z,13.80
2018-11-29T06:42:45.481Z,14.10
2018-11-29T06:45:19.484Z,13.67
2018-11-29T06:47:50.443Z,13.63
2018-11-29T06:50:19.895Z,13.67
2018-11-29T06:52:50.193Z,15.10
2018-11-29T06:55:20.534Z,14.50
2018-11-29T06:57:49.871Z,13.27
2018-11-29T07:00:36.234Z,14.23
2018-11-29T07:03:06.376Z,11.43
2018-11-29T07:05:35.389Z,11.67
2018-11-29T07:08:04.403Z,12.77
2018-11-29T07:10:33.829Z,13.07
2018-11-29T07:13:04.325Z,11.73
2018-11-29T07:15:33.356Z,12.50
2018-11-29T07:18:02.416Z,13.63
2018-11-29T07:20:31.459Z,12.63
2018-11-29T07:23:00.770Z,12.60
2018-11-29T07:25:30.525Z,12.43
2018-11-29T07:27:59.524Z,12.80
2018-11-29T07:30:29.456Z,12.07
2018-11-29T07:32:58.482Z,12.87
2018-11-29T07:35:27.506Z,12.10
2018-11-29T07:37:56.538Z,11.40
2018-11-29T07:40:25.820Z,13.37
2018-11-29T07:42:55.465Z,11.77
2018-11-29T07:45:24.530Z,9.70
2018-11-29T07:47:53.520Z,10.60
2018-11-29T07:50:23.228Z,11.83
2018-11-29T07:52:52.857Z,10.33
2018-11-29T07:55:23.001Z,10.67
2018-11-29T07:57:53.032Z,9.67
2018-11-29T08:00:22.148Z,9.90
2018-11-29T08:02:51.239Z,10.30
2018-11-29T08:05:20.224Z,9.70
2018-11-29T08:07:50.076Z,8.87
2018-11-29T08:10:20.422Z,9.90
2018-11-29T08:12:49.605Z,9.07
2018-11-29T08:15:20.614Z,9.13
2018-11-29T08:17:49.694Z,8.37
2018-11-29T08:20:21.344Z,8.57
2018-11-29T08:22:50.908Z,8.27
2018-11-29T08:25:20.391Z,7.00
2018-11-29T08:27:49.721Z,7.57
2018-11-29T08:30:18.819Z,7.27
2018-11-29T08:32:48.087Z,7.23
2018-11-29T08:35:17.766Z,8.23
2018-11-29T08:37:47.455Z,8.13
2018-11-29T08:40:21.743Z,7.83
2018-11-29T08:42:50.961Z,7.87
2018-11-29T08:45:20.996Z,8.00
2018-11-29T08:47:50.057Z,7.80
2018-11-29T08:50:19.031Z,7.70
2018-11-29T08:52:48.126Z,8.13
2018-11-29T08:55:18.734Z,8.30
2018-11-29T08:57:49.111Z,7.80
2018-11-29T09:00:19.155Z,8.23
2018-11-29T09:02:48.257Z,9.23
2018-11-29T09:05:17.358Z,8.83
2018-11-29T09:07:47.649Z,9.27
2018-11-29T09:10:19.396Z,8.80
2018-11-29T09:12:48.440Z,9.63
2018-11-29T09:15:18.675Z,9.07
2018-11-29T09:17:48.358Z,8.27
2018-11-29T09:20:20.584Z,8.63
2018-11-29T09:22:50.170Z,8.23
2018-11-29T09:25:21.390Z,8.77
2018-11-29T09:27:50.848Z,8.50
2018-11-29T09:30:22.024Z,8.53
2018-11-29T09:32:52.465Z,7.63
2018-11-29T09:35:21.500Z,7.93
2018-11-29T09:37:50.453Z,8.57
2018-11-29T09:40:20.131Z,7.70
2018-11-29T09:42:49.153Z,7.83
2018-11-29T09:45:19.320Z,8.83
2018-11-29T09:47:49.474Z,7.80
2018-11-29T09:50:19.148Z,8.53
2018-11-29T09:52:48.140Z,8.00
2018-11-29T09:55:17.846Z,7.80
2018-11-29T09:57:48.026Z,8.43
2018-11-29T10:00:27.183Z,8.20
2018-11-29T10:02:52.724Z,8.63
2018-11-29T10:05:21.777Z,8.03
2018-11-29T10:07:51.209Z,6.47
2018-11-29T10:10:20.202Z,7.20
2018-11-29T10:12:49.249Z,7.00
2018-11-29T10:15:19.176Z,6.37
2018-11-29T10:17:48.188Z,6.67
2018-11-29T10:20:17.243Z,7.17
2018-11-29T10:22:46.189Z,7.10
2018-11-29T10:25:16.188Z,6.63
2018-11-29T10:27:47.383Z,6.90
2018-11-29T10:30:19.808Z,6.73
2018-11-29T10:32:48.911Z,6.90
2018-11-29T10:35:18.027Z,7.87
2018-11-29T10:37:47.109Z,8.07
2018-11-29T10:40:16.732Z,7.20
2018-11-29T10:42:45.946Z,7.77
2018-11-29T10:45:17.248Z,8.53
2018-11-29T10:47:52.244Z,8.57
2018-11-29T10:50:17.437Z,8.50
2018-11-29T10:52:46.412Z,8.03
2018-11-29T10:55:18.354Z,8.27
2018-11-29T10:57:47.995Z,9.17
2018-11-29T11:00:27.678Z,8.73
2018-11-29T11:03:06.184Z,8.50
2018-11-29T11:05:35.560Z,9.10
2018-11-29T11:08:08.553Z,8.57
2018-11-29T11:10:34.318Z,8.10
2018-11-29T11:13:03.271Z,8.73
2018-11-29T11:15:32.282Z,9.80
2018-11-29T11:18:01.646Z,8.13
2018-11-29T11:20:30.637Z,10.10
2018-11-29T11:22:59.638Z,10.40
2018-11-29T11:25:28.864Z,11.47
2018-11-29T11:27:58.549Z,10.37
2018-11-29T11:30:27.715Z,11.00
2018-11-29T11:32:56.882Z,11.33
2018-11-29T11:35:28.609Z,11.10
2018-11-29T11:37:57.619Z,10.47
2018-11-29T11:40:26.914Z,11.13
2018-11-29T11:42:55.909Z,10.17
2018-11-29T11:45:25.399Z,12.73
2018-11-29T11:47:54.746Z,13.17
2018-11-29T11:50:24.584Z,13.50
2018-11-29T11:52:55.084Z,13.30
2018-11-29T11:55:30.048Z,12.63
2018-11-29T11:57:53.550Z,13.90
2018-11-29T12:00:25.512Z,13.67
2018-11-29T12:02:59.973Z,13.47
2018-11-29T12:05:29.047Z,14.00
2018-11-29T12:07:58.041Z,13.53
2018-11-29T12:10:27.029Z,13.80
2018-11-29T12:12:56.086Z,13.40
2018-11-29T12:15:25.520Z,12.27
2018-11-29T12:17:54.567Z,12.93
2018-11-29T12:20:24.073Z,13.13
2018-11-29T12:22:53.058Z,13.57
2018-11-29T12:25:23.331Z,13.50
2018-11-29T12:27:52.662Z,13.60
2018-11-29T12:30:26.321Z,13.47
2018-11-29T12:32:56.841Z,12.73
2018-11-29T12:35:26.260Z,14.30
2018-11-29T12:37:55.946Z,12.90
2018-11-29T12:40:25.698Z,13.10
2018-11-29T12:42:54.676Z,13.10
2018-11-29T12:45:23.680Z,13.50
2018-11-29T12:47:52.953Z,13.67
2018-11-29T12:50:25.206Z,15.70
2018-11-29T12:52:54.343Z,12.70
2018-11-29T12:55:24.477Z,14.60
2018-11-29T13:00:24.856Z,13.57
2018-11-29T13:02:58.042Z,13.47
2018-11-29T13:03:02.505Z,14.07
2018-11-29T13:05:27.823Z,13.60
2018-11-29T13:07:58.073Z,13.23
2018-11-29T13:10:27.832Z,13.77
2018-11-29T13:12:56.880Z,13.57
2018-11-29T13:15:33.343Z,12.23
2018-11-29T13:18:03.916Z,14.10
2018-11-29T13:20:32.936Z,13.87
2018-11-29T13:23:02.421Z,13.23
2018-11-29T13:25:31.453Z,14.10
2018-11-29T13:28:01.198Z,13.93
2018-11-29T13:30:30.189Z,14.17
2018-11-29T13:32:59.773Z,13.23
2018-11-29T13:35:32.301Z,13.23
2018-11-29T13:38:03.540Z,13.77
2018-11-29T13:40:32.538Z,12.77
2018-11-29T13:43:02.656Z,14.70
2018-11-29T13:45:31.675Z,13.30
2018-11-29T13:48:01.114Z,13.50
2018-11-29T13:50:30.137Z,15.37
2018-11-29T13:52:59.501Z,13.67
2018-11-29T13:55:29.096Z,14.13
2018-11-29T13:57:58.432Z,13.73
2018-11-29T14:00:27.817Z,15.80
2018-11-29T14:03:02.798Z,13.50
2018-11-29T14:05:31.771Z,13.20
2018-11-29T14:08:01.254Z,13.93
2018-11-29T14:10:30.140Z,14.63
2018-11-29T14:12:59.386Z,14.63
2018-11-29T14:15:28.985Z,15.17
2018-11-29T14:17:58.023Z,15.87
2018-11-29T14:20:27.025Z,14.50
2018-11-29T14:22:56.340Z,13.87
2018-11-29T14:25:25.337Z,14.33
2018-11-29T14:27:56.727Z,14.43
2018-11-29T14:30:27.845Z,13.90
2018-11-29T14:32:59.122Z,14.03
2018-11-29T14:35:28.120Z,13.23
2018-11-29T14:37:57.578Z,14.23
2018-11-29T14:40:27.947Z,15.10
2018-11-29T14:42:56.972Z,13.77
2018-11-29T14:45:26.908Z,14.97
2018-11-29T14:47:56.892Z,14.40
2018-11-29T14:50:31.351Z,14.57
2018-11-29T14:53:00.630Z,13.73
2018-11-29T14:55:29.606Z,14.77
2018-11-29T14:57:58.734Z,15.80
2018-11-29T15:00:27.770Z,14.30
2018-11-29T15:02:57.983Z,14.37
2018-11-29T15:05:28.256Z,14.37
2018-11-29T15:07:57.268Z,13.83
2018-11-29T15:10:26.587Z,14.87
2018-11-29T15:12:56.477Z,14.13
2018-11-29T15:15:25.481Z,13.37
2018-11-29T15:17:54.846Z,14.57
2018-11-29T15:20:56.487Z,15.50
2018-11-29T15:23:25.751Z,13.30
2018-11-29T15:25:55.059Z,14.73
2018-11-29T15:28:24.153Z,14.03
2018-11-29T15:30:53.282Z,13.40
2018-11-29T15:33:22.441Z,15.93
2018-11-29T15:35:51.766Z,14.37
2018-11-29T15:38:20.800Z,15.13
2018-11-29T15:40:50.088Z,14.90
2018-11-29T15:43:19.522Z,14.87
2018-11-29T15:45:48.534Z,14.63
2018-11-29T15:48:17.792Z,14.87
2018-11-29T15:50:46.748Z,14.83
2018-11-29T15:53:15.824Z,14.73
2018-11-29T15:55:44.815Z,14.60
2018-11-29T15:58:13.805Z,14.97
2018-11-29T16:00:42.870Z,13.83
2018-11-29T16:03:11.851Z,15.10
2018-11-29T16:05:42.016Z,14.43
2018-11-29T16:08:11.045Z,15.70
2018-11-29T16:10:40.307Z,14.10
2018-11-29T16:13:09.279Z,15.33
2018-11-29T16:15:38.607Z,15.83
2018-11-29T16:18:08.764Z,16.50
2018-11-29T16:20:38.832Z,16.73
2018-11-29T16:23:09.185Z,15.87
2018-11-29T16:25:38.149Z,14.80
2018-11-29T16:28:08.220Z,15.30
2018-11-29T16:30:41.056Z,14.80
2018-11-29T16:33:13.058Z,15.37
2018-11-29T16:35:42.036Z,14.80
2018-11-29T16:38:11.033Z,15.53
2018-11-29T16:40:39.996Z,15.67
2018-11-29T16:43:08.992Z,16.27
2018-11-29T16:45:37.968Z,16.07
2018-11-29T16:48:07.260Z,16.50
2018-11-29T16:50:39.633Z,16.87
2018-11-29T16:53:09.183Z,16.33
2018-11-29T16:55:39.218Z,17.03
2018-11-29T16:58:10.793Z,16.07
2018-11-29T17:00:39.923Z,16.60
2018-11-29T17:03:09.336Z,16.30
2018-11-29T17:05:38.731Z,16.27
2018-11-29T17:08:07.988Z,17.13
2018-11-29T17:10:37.381Z,15.87
2018-11-29T17:13:12.311Z,15.83
2018-11-29T17:15:41.729Z,16.43
2018-11-29T17:18:10.772Z,16.10
2018-11-29T17:20:39.781Z,15.87
2018-11-29T17:23:09.935Z,14.73
2018-11-29T17:25:38.967Z,15.43
2018-11-29T17:28:08.154Z,15.27
2018-11-29T17:30:38.311Z,15.93
2018-11-29T17:33:08.466Z,15.67
2018-11-29T17:35:37.431Z,16.17
2018-11-29T17:38:06.731Z,14.63
2018-11-29T17:40:37.137Z,16.80
2018-11-29T17:43:07.152Z,16.77
2018-11-29T17:45:36.286Z,15.27
2018-11-29T17:48:08.504Z,15.27
2018-11-29T17:50:39.109Z,17.27
2018-11-29T17:53:10.821Z,15.03
2018-11-29T17:55:40.176Z,16.90
2018-11-29T17:58:11.687Z,16.20
2018-11-29T18:00:41.221Z,16.03
2018-11-29T18:03:10.944Z,14.37
2018-11-29T18:05:39.960Z,15.37
2018-11-29T18:08:09.635Z,16.23
2018-11-29T18:10:40.431Z,16.07
2018-11-29T18:13:15.172Z,15.43
2018-11-29T18:15:44.278Z,16.13
2018-11-29T18:18:14.676Z,15.97
2018-11-29T18:20:42.635Z,13.90
2018-11-29T18:23:13.352Z,16.23
2018-11-29T18:25:42.530Z,17.20
2018-11-29T18:28:12.345Z,16.20
2018-11-29T18:30:41.365Z,16.20
2018-11-29T18:33:10.140Z,15.50
2018-11-29T18:35:39.088Z,17.53
2018-11-29T18:38:08.242Z,17.33
2018-11-29T18:40:37.310Z,17.20
2018-11-29T18:43:08.109Z,16.33
2018-11-29T18:45:37.821Z,16.17
2018-11-29T18:48:07.346Z,17.60
2018-11-29T18:50:36.426Z,15.90
2018-11-29T18:53:06.145Z,15.80
2018-11-29T18:55:35.314Z,17.77
2018-11-29T18:58:05.100Z,16.77
2018-11-29T19:00:35.312Z,15.80
2018-11-29T19:03:05.126Z,16.17
2018-11-29T19:05:35.516Z,17.27
2018-11-29T19:08:04.254Z,18.20
2018-11-29T19:10:33.460Z,17.97
2018-11-29T19:13:11.373Z,17.77
2018-11-29T19:15:40.696Z,17.40
2018-11-29T19:18:11.024Z,18.70
2018-11-29T19:20:39.679Z,16.63
2018-11-29T19:23:08.690Z,18.33
2018-11-29T19:25:38.669Z,17.60
2018-11-29T19:28:08.414Z,19.40
2018-11-29T19:30:38.258Z,16.63
2018-11-29T19:33:23.508Z,17.50
2018-11-29T19:35:53.801Z,17.37
2018-11-29T19:38:23.139Z,18.37
2018-11-29T19:40:52.171Z,17.57
2018-11-29T19:43:21.191Z,16.83
2018-11-29T19:45:51.013Z,16.47
2018-11-29T19:48:20.635Z,16.80
2018-11-29T19:50:49.574Z,16.23
2018-11-29T19:53:22.011Z,17.03
2018-11-29T19:55:53.080Z,16.93
2018-11-29T19:58:22.123Z,16.53
2018-11-29T20:00:51.145Z,16.37
2018-11-29T20:03:20.156Z,16.77
2018-11-29T20:05:49.564Z,16.53
2018-11-29T20:08:18.565Z,17.73
2018-11-29T20:10:48.110Z,16.93
2018-11-29T20:13:17.817Z,18.70
2018-11-29T20:18:49.101Z,18.03
2018-11-29T20:21:18.808Z,17.70
2018-11-29T20:23:48.045Z,17.63
2018-11-29T20:26:17.746Z,17.73
2018-11-29T20:28:47.237Z,18.03
2018-11-29T20:31:17.187Z,18.13
2018-11-29T20:33:46.466Z,17.93
2018-11-29T20:36:15.469Z,17.90
2018-11-29T20:38:44.518Z,17.87
2018-11-29T20:41:13.776Z,16.83
2018-11-29T20:43:42.886Z,18.10
2018-11-29T20:46:12.155Z,16.97
2018-11-29T20:48:41.125Z,17.37
2018-11-29T20:51:10.517Z,17.63
2018-11-29T20:53:40.430Z,17.30
2018-11-29T20:56:12.258Z,16.90
2018-11-29T20:58:43.556Z,16.73
2018-11-29T21:01:13.550Z,18.27
2018-11-29T21:03:42.692Z,17.53
2018-11-29T21:06:13.013Z,16.33
2018-11-29T21:08:42.001Z,17.70
2018-11-29T21:11:11.016Z,17.67
2018-11-29T21:13:40.105Z,17.13
2018-11-29T21:16:09.430Z,16.63
2018-11-29T21:18:38.405Z,16.93
2018-11-29T21:21:07.396Z,18.20
2018-11-29T21:23:36.692Z,17.13
2018-11-29T21:26:06.142Z,17.37
2018-11-29T21:28:35.101Z,17.63
2018-11-29T21:31:04.131Z,18.57
2018-11-29T21:33:33.157Z,17.37
2018-11-29T21:36:02.152Z,17.80
2018-11-29T21:38:31.156Z,18.13
2018-11-29T21:41:02.764Z,16.97
2018-11-29T21:43:31.798Z,17.33
2018-11-29T21:46:00.836Z,16.30
2018-11-29T21:48:30.848Z,18.23
2018-11-29T21:50:59.873Z,17.23
2018-11-29T21:53:28.917Z,16.90
2018-11-29T21:55:58.375Z,16.43
2018-11-29T21:58:27.363Z,17.87
2018-11-29T22:00:56.689Z,17.63
2018-11-29T22:03:25.635Z,17.60
2018-11-29T22:05:54.637Z,18.00
2018-11-29T22:08:23.617Z,17.37
2018-11-29T22:10:53.208Z,16.37
2018-11-29T22:13:22.189Z,16.00
2018-11-29T22:15:51.650Z,17.90
2018-11-29T22:18:23.305Z,16.83
2018-11-29T22:20:57.533Z,16.83
2018-11-29T22:23:26.603Z,17.27
2018-11-29T22:25:56.905Z,17.47
2018-11-29T22:28:26.023Z,16.03
2018-11-29T22:30:55.471Z,16.93
2018-11-29T22:33:24.755Z,16.87
2018-11-29T22:35:53.770Z,16.00
2018-11-29T22:38:22.736Z,17.47
2018-11-29T22:40:51.991Z,17.57
2018-11-29T22:43:20.853Z,16.93
2018-11-29T22:45:49.844Z,18.53
2018-11-29T22:48:18.885Z,17.33
2018-11-29T22:50:47.907Z,17.80
2018-11-29T22:53:16.920Z,16.77
2018-11-29T22:55:46.925Z,17.90
2018-11-29T22:58:15.990Z,17.80
2018-11-29T23:00:51.513Z,17.73
2018-11-29T23:03:21.269Z,17.07
2018-11-29T23:05:50.300Z,16.10
2018-11-29T23:08:19.652Z,18.03
2018-11-29T23:10:49.614Z,18.23
2018-11-29T23:13:19.000Z,17.00
2018-11-29T23:15:48.042Z,17.53
2018-11-29T23:18:17.038Z,16.50
2018-11-29T23:20:46.046Z,17.63
2018-11-29T23:23:15.249Z,17.23
2018-11-29T23:25:44.287Z,17.50
2018-11-29T23:28:13.286Z,17.37
2018-11-29T23:30:42.708Z,18.17
2018-11-29T23:33:11.735Z,16.90
2018-11-29T23:35:41.095Z,18.67
2018-11-29T23:38:10.205Z,17.63
2018-11-29T23:40:39.290Z,17.20
2018-11-29T23:43:08.251Z,17.97
2018-11-29T23:45:37.257Z,16.43
2018-11-29T23:48:06.320Z,16.50
2018-11-29T23:50:36.214Z,18.20
2018-11-29T23:53:05.676Z,17.30
2018-11-29T23:55:34.699Z,18.67
2018-11-29T23:58:03.753Z,17.93
